Airfield :
LOGIN :

Register | Disclaimer

   EN    FR    IT 

 










Legend :    VFR   Marginal VFR   IFR   Intensive IFR   Very Intensive IFR
Visi :
Ceiling :
>= 8 km
>= 3000ft
5 to 8 km
1000 to 3000 ft
1500m to 5 km
500 to 1000 ft
800 to 1500m
200 to 500 ft
< 800m
< 200 ft
Symbols :   Thunderstorms  Fog  Heavy snow  Heavy precipitations  Wind > 20 kt
SIGMETs :     Misc.  Thunderstorms  Icing  Turbulence  Mountain Waves  Volcanic Ashes






- Airport Elevation : 219 ft
- IATA code : DNR


LFRD - Dinard

CURRENT METAR :
  • 040000Z AUTO 24003KT CAVOK 12/11 Q1019 NOSIG

EXPIRED METARs :
  • 032330Z AUTO 21005KT 190V250 9999 SCT018 13/12 Q1019 NOSIG
  • 032300Z AUTO 32007KT CAVOK 14/12 Q1019 NOSIG
  • 032230Z AUTO 32006KT 9999 FEW017 14/12 Q1019 NOSIG
  • 032200Z AUTO VRB02KT 9999 FEW017 14/13 Q1019 NOSIG
  • 032130Z AUTO 32005KT 9999 FEW016 14/13 Q1019 NOSIG

TAF TAF LFRD
Valid from the 04 at 00:00 until the 05 at 00:00 UTC


032300Z 0400/0424 VRB03KT CAVOK
TEMPO 0402/0407 3000 BR
BECMG 0410/0412 36010KT
BECMG 0419/0421 VRB02KT
ATIS : +33 2 99 16 81 50



MET'MAP, your aeronautical weather chart ! - Copyright ORBIFLY December 2007 - Disclaimer

ORBIFLY MET'MAP TEAM :

Programming & Development : Alexandra Zaïnal
Concept & original design : Baudouin d'Aumeries
Assistance for programming : Marc-Olivier Méhu
Technical & hardware support : Manuel Goepfert

Contact : metmap@orbifly.com




SOURCES & CREDITS :

   NOAA